Archival Weather

Pocono Mountains Rgnl

Mount Pocono, Pennsylvania (KMPO)

Report from: Tuesday, May 21, 2024 6:53 PM EDT
Current time: Monday, July 22, 2024 5:57 AM EDT

Current weather – Weather history – Daily summaries
Weather forecast

Temperature24.4°C (75.9°F)
Dew point12.8°C (55.0°F)
Winds 9 kts (4.6 m/s, 10.4 mph) South-Southwest (200°)
Visibility10 mi. (16.1 km)
Clouds Sky clear
Altimeter30.00 in.Hg (1016 mB)
Relative humidity48 %
Density altitude1,245 ft. (379 m)
Sea-level pressure101.5 kPa (1015 mB, 29.97 in.Hg)
Remarks Fully automated report
Automated weather observing station with precipitation discriminator
Flight conditions Visual Meteorological Conditions
Raw dataKMPO 212253Z AUTO 20009KT 10SM CLR 24/13 A3000 RMK AO2 SLP148 T02440128
An error has occurred. This application may no longer respond until reloaded. Reload 🗙